sensor_id;sensor_type;location;lat;lon;timestamp;P1;durP1;ratioP1;P2;durP2;ratioP2
6356;SDS011;3211;53.452;-2.264;2024-03-08T00:00:38;12.30;;;7.20;;
6356;SDS011;3211;53.452;-2.264;2024-03-08T00:03:29;13.30;;;7.57;;
6356;SDS011;3211;53.452;-2.264;2024-03-08T00:06:18;12.53;;;7.43;;
6356;SDS011;3211;53.452;-2.264;2024-03-08T00:09:05;16.27;;;8.27;;
6356;SDS011;3211;53.452;-2.264;2024-03-08T00:11:53;12.80;;;8.20;;
6356;SDS011;3211;53.452;-2.264;2024-03-08T00:14:40;11.80;;;8.10;;
6356;SDS011;3211;53.452;-2.264;2024-03-08T00:17:27;16.53;;;7.90;;
6356;SDS011;3211;53.452;-2.264;2024-03-08T00:20:16;12.70;;;8.20;;
6356;SDS011;3211;53.452;-2.264;2024-03-08T00:23:04;12.90;;;7.50;;
6356;SDS011;3211;53.452;-2.264;2024-03-08T00:25:51;12.50;;;7.73;;
6356;SDS011;3211;53.452;-2.264;2024-03-08T00:28:39;13.20;;;7.80;;
6356;SDS011;3211;53.452;-2.264;2024-03-08T00:31:26;11.60;;;7.50;;
6356;SDS011;3211;53.452;-2.264;2024-03-08T00:34:16;13.93;;;8.30;;
6356;SDS011;3211;53.452;-2.264;2024-03-08T00:37:05;14.33;;;7.97;;
6356;SDS011;3211;53.452;-2.264;2024-03-08T00:39:52;11.50;;;8.00;;
6356;SDS011;3211;53.452;-2.264;2024-03-08T00:42:39;16.60;;;9.60;;
6356;SDS011;3211;53.452;-2.264;2024-03-08T00:45:28;19.00;;;9.27;;
6356;SDS011;3211;53.452;-2.264;2024-03-08T00:48:16;14.13;;;8.30;;
6356;SDS011;3211;53.452;-2.264;2024-03-08T00:51:03;12.13;;;8.23;;
6356;SDS011;3211;53.452;-2.264;2024-03-08T00:53:52;17.43;;;9.70;;
6356;SDS011;3211;53.452;-2.264;2024-03-08T00:56:39;13.27;;;8.53;;
6356;SDS011;3211;53.452;-2.264;2024-03-08T00:59:26;16.47;;;9.03;;
6356;SDS011;3211;53.452;-2.264;2024-03-08T01:02:13;17.23;;;9.07;;
6356;SDS011;3211;53.452;-2.264;2024-03-08T01:05:03;14.73;;;8.27;;
6356;SDS011;3211;53.452;-2.264;2024-03-08T01:07:52;14.37;;;9.30;;
6356;SDS011;3211;53.452;-2.264;2024-03-08T01:10:41;20.23;;;9.70;;
6356;SDS011;3211;53.452;-2.264;2024-03-08T01:13:28;21.10;;;10.50;;
6356;SDS011;3211;53.452;-2.264;2024-03-08T01:16:15;15.27;;;9.07;;
6356;SDS011;3211;53.452;-2.264;2024-03-08T01:19:03;15.93;;;8.37;;
6356;SDS011;3211;53.452;-2.264;2024-03-08T01:21:51;17.90;;;10.27;;
6356;SDS011;3211;53.452;-2.264;2024-03-08T01:24:38;15.93;;;9.50;;
6356;SDS011;3211;53.452;-2.264;2024-03-08T01:27:26;17.57;;;9.60;;
6356;SDS011;3211;53.452;-2.264;2024-03-08T01:30:14;15.80;;;8.83;;
6356;SDS011;3211;53.452;-2.264;2024-03-08T01:33:02;20.03;;;10.03;;
6356;SDS011;3211;53.452;-2.264;2024-03-08T01:35:51;17.07;;;10.37;;
6356;SDS011;3211;53.452;-2.264;2024-03-08T01:38:38;19.30;;;9.57;;
6356;SDS011;3211;53.452;-2.264;2024-03-08T01:41:25;18.80;;;10.17;;
6356;SDS011;3211;53.452;-2.264;2024-03-08T01:44:16;18.87;;;10.27;;
6356;SDS011;3211;53.452;-2.264;2024-03-08T01:47:04;19.60;;;11.30;;
6356;SDS011;3211;53.452;-2.264;2024-03-08T01:49:51;18.87;;;10.33;;
6356;SDS011;3211;53.452;-2.264;2024-03-08T01:52:39;17.83;;;10.30;;
6356;SDS011;3211;53.452;-2.264;2024-03-08T01:55:26;18.87;;;10.13;;
6356;SDS011;3211;53.452;-2.264;2024-03-08T01:58:13;16.00;;;9.93;;
6356;SDS011;3211;53.452;-2.264;2024-03-08T02:01:03;24.43;;;11.47;;
6356;SDS011;3211;53.452;-2.264;2024-03-08T02:03:51;17.83;;;10.90;;
6356;SDS011;3211;53.452;-2.264;2024-03-08T02:06:38;18.57;;;11.40;;
6356;SDS011;3211;53.452;-2.264;2024-03-08T02:09:25;20.03;;;11.17;;
6356;SDS011;3211;53.452;-2.264;2024-03-08T02:12:13;16.63;;;10.97;;
6356;SDS011;3211;53.452;-2.264;2024-03-08T02:15:00;19.00;;;11.60;;
6356;SDS011;3211;53.452;-2.264;2024-03-08T02:17:49;21.97;;;11.77;;
6356;SDS011;3211;53.452;-2.264;2024-03-08T02:20:37;20.10;;;11.30;;
6356;SDS011;3211;53.452;-2.264;2024-03-08T02:23:25;23.53;;;12.93;;
6356;SDS011;3211;53.452;-2.264;2024-03-08T02:26:12;24.10;;;13.50;;
6356;SDS011;3211;53.452;-2.264;2024-03-08T02:29:00;18.93;;;11.07;;
6356;SDS011;3211;53.452;-2.264;2024-03-08T02:31:50;20.37;;;12.90;;
6356;SDS011;3211;53.452;-2.264;2024-03-08T02:34:38;20.70;;;11.50;;
6356;SDS011;3211;53.452;-2.264;2024-03-08T02:37:26;21.63;;;12.30;;
6356;SDS011;3211;53.452;-2.264;2024-03-08T02:40:14;21.20;;;12.93;;
6356;SDS011;3211;53.452;-2.264;2024-03-08T02:43:02;22.90;;;13.30;;
6356;SDS011;3211;53.452;-2.264;2024-03-08T02:45:50;21.67;;;12.63;;
6356;SDS011;3211;53.452;-2.264;2024-03-08T02:48:38;22.80;;;12.17;;
6356;SDS011;3211;53.452;-2.264;2024-03-08T02:51:25;20.73;;;13.27;;
6356;SDS011;3211;53.452;-2.264;2024-03-08T02:54:14;23.00;;;13.50;;
6356;SDS011;3211;53.452;-2.264;2024-03-08T02:57:02;20.50;;;11.30;;
6356;SDS011;3211;53.452;-2.264;2024-03-08T02:59:53;22.37;;;12.90;;
6356;SDS011;3211;53.452;-2.264;2024-03-08T03:02:41;20.37;;;12.23;;
6356;SDS011;3211;53.452;-2.264;2024-03-08T03:05:29;17.63;;;11.70;;
6356;SDS011;3211;53.452;-2.264;2024-03-08T03:08:16;24.63;;;12.03;;
6356;SDS011;3211;53.452;-2.264;2024-03-08T03:11:06;20.67;;;12.70;;
6356;SDS011;3211;53.452;-2.264;2024-03-08T03:13:53;19.87;;;12.90;;
6356;SDS011;3211;53.452;-2.264;2024-03-08T03:16:41;24.67;;;12.97;;
6356;SDS011;3211;53.452;-2.264;2024-03-08T03:19:29;22.03;;;12.40;;
6356;SDS011;3211;53.452;-2.264;2024-03-08T03:22:16;19.00;;;11.37;;
6356;SDS011;3211;53.452;-2.264;2024-03-08T03:25:03;22.70;;;11.97;;
6356;SDS011;3211;53.452;-2.264;2024-03-08T03:27:53;21.27;;;12.10;;
6356;SDS011;3211;53.452;-2.264;2024-03-08T03:30:41;16.07;;;10.23;;
6356;SDS011;3211;53.452;-2.264;2024-03-08T03:33:29;19.03;;;11.33;;
6356;SDS011;3211;53.452;-2.264;2024-03-08T03:36:19;18.90;;;11.20;;
6356;SDS011;3211;53.452;-2.264;2024-03-08T03:39:06;19.33;;;10.50;;
6356;SDS011;3211;53.452;-2.264;2024-03-08T03:41:57;18.20;;;10.57;;
6356;SDS011;3211;53.452;-2.264;2024-03-08T03:44:46;20.70;;;11.40;;
6356;SDS011;3211;53.452;-2.264;2024-03-08T03:47:34;15.63;;;10.17;;
6356;SDS011;3211;53.452;-2.264;2024-03-08T03:50:21;15.90;;;9.90;;
6356;SDS011;3211;53.452;-2.264;2024-03-08T03:53:09;23.50;;;11.33;;
6356;SDS011;3211;53.452;-2.264;2024-03-08T03:55:56;19.97;;;10.83;;
6356;SDS011;3211;53.452;-2.264;2024-03-08T03:58:44;22.63;;;12.40;;
6356;SDS011;3211;53.452;-2.264;2024-03-08T04:01:33;16.00;;;10.00;;
6356;SDS011;3211;53.452;-2.264;2024-03-08T04:04:20;19.30;;;10.60;;
6356;SDS011;3211;53.452;-2.264;2024-03-08T04:07:08;17.47;;;10.43;;
6356;SDS011;3211;53.452;-2.264;2024-03-08T04:09:56;14.87;;;10.27;;
6356;SDS011;3211;53.452;-2.264;2024-03-08T04:12:43;18.90;;;11.30;;
6356;SDS011;3211;53.452;-2.264;2024-03-08T04:15:31;21.70;;;11.23;;
6356;SDS011;3211;53.452;-2.264;2024-03-08T04:18:20;16.63;;;10.57;;
6356;SDS011;3211;53.452;-2.264;2024-03-08T04:21:07;17.77;;;10.13;;
6356;SDS011;3211;53.452;-2.264;2024-03-08T04:23:54;19.90;;;10.87;;
6356;SDS011;3211;53.452;-2.264;2024-03-08T04:26:42;16.90;;;10.07;;
6356;SDS011;3211;53.452;-2.264;2024-03-08T04:29:29;20.30;;;10.53;;
6356;SDS011;3211;53.452;-2.264;2024-03-08T04:32:17;19.00;;;10.73;;
6356;SDS011;3211;53.452;-2.264;2024-03-08T04:35:06;22.03;;;11.23;;
6356;SDS011;3211;53.452;-2.264;2024-03-08T04:37:54;19.67;;;11.27;;
6356;SDS011;3211;53.452;-2.264;2024-03-08T04:40:43;20.93;;;12.20;;
6356;SDS011;3211;53.452;-2.264;2024-03-08T04:43:30;24.63;;;12.83;;
6356;SDS011;3211;53.452;-2.264;2024-03-08T04:46:17;18.47;;;11.50;;
6356;SDS011;3211;53.452;-2.264;2024-03-08T04:49:04;25.00;;;12.00;;
6356;SDS011;3211;53.452;-2.264;2024-03-08T04:51:53;19.33;;;10.73;;
6356;SDS011;3211;53.452;-2.264;2024-03-08T04:54:41;19.23;;;12.37;;
6356;SDS011;3211;53.452;-2.264;2024-03-08T04:57:29;24.93;;;12.00;;
6356;SDS011;3211;53.452;-2.264;2024-03-08T05:00:17;22.40;;;12.40;;
6356;SDS011;3211;53.452;-2.264;2024-03-08T05:03:06;18.30;;;11.67;;
6356;SDS011;3211;53.452;-2.264;2024-03-08T05:05:53;21.93;;;12.50;;
6356;SDS011;3211;53.452;-2.264;2024-03-08T05:08:43;19.47;;;11.80;;
6356;SDS011;3211;53.452;-2.264;2024-03-08T05:11:30;17.13;;;11.47;;
6356;SDS011;3211;53.452;-2.264;2024-03-08T05:14:17;22.47;;;12.33;;
6356;SDS011;3211;53.452;-2.264;2024-03-08T05:17:05;23.30;;;12.20;;
6356;SDS011;3211;53.452;-2.264;2024-03-08T05:19:52;19.90;;;12.30;;
6356;SDS011;3211;53.452;-2.264;2024-03-08T05:22:40;23.13;;;12.17;;
6356;SDS011;3211;53.452;-2.264;2024-03-08T05:25:28;18.70;;;12.57;;
6356;SDS011;3211;53.452;-2.264;2024-03-08T05:28:15;20.90;;;12.63;;
6356;SDS011;3211;53.452;-2.264;2024-03-08T05:31:03;24.30;;;14.03;;
6356;SDS011;3211;53.452;-2.264;2024-03-08T05:33:50;27.07;;;14.10;;
6356;SDS011;3211;53.452;-2.264;2024-03-08T05:36:39;26.87;;;12.03;;
6356;SDS011;3211;53.452;-2.264;2024-03-08T05:39:26;25.27;;;14.27;;
6356;SDS011;3211;53.452;-2.264;2024-03-08T05:42:16;21.90;;;13.30;;
6356;SDS011;3211;53.452;-2.264;2024-03-08T05:45:03;26.13;;;13.80;;
6356;SDS011;3211;53.452;-2.264;2024-03-08T05:47:51;20.77;;;12.40;;
6356;SDS011;3211;53.452;-2.264;2024-03-08T05:50:38;25.67;;;13.93;;
6356;SDS011;3211;53.452;-2.264;2024-03-08T05:53:26;24.37;;;14.20;;
6356;SDS011;3211;53.452;-2.264;2024-03-08T05:56:13;23.30;;;14.00;;
6356;SDS011;3211;53.452;-2.264;2024-03-08T05:59:02;24.20;;;14.30;;
6356;SDS011;3211;53.452;-2.264;2024-03-08T06:01:49;26.63;;;13.07;;
6356;SDS011;3211;53.452;-2.264;2024-03-08T06:04:36;24.47;;;14.40;;
6356;SDS011;3211;53.452;-2.264;2024-03-08T06:07:23;26.73;;;14.10;;
6356;SDS011;3211;53.452;-2.264;2024-03-08T06:10:11;24.10;;;13.80;;
6356;SDS011;3211;53.452;-2.264;2024-03-08T06:12:58;22.33;;;13.27;;
6356;SDS011;3211;53.452;-2.264;2024-03-08T06:15:48;21.77;;;13.77;;
6356;SDS011;3211;53.452;-2.264;2024-03-08T06:18:35;23.70;;;14.30;;
6356;SDS011;3211;53.452;-2.264;2024-03-08T06:21:23;24.70;;;14.00;;
6356;SDS011;3211;53.452;-2.264;2024-03-08T06:24:11;21.93;;;12.93;;
6356;SDS011;3211;53.452;-2.264;2024-03-08T06:27:00;22.43;;;13.87;;
6356;SDS011;3211;53.452;-2.264;2024-03-08T06:29:47;20.80;;;13.00;;
6356;SDS011;3211;53.452;-2.264;2024-03-08T06:32:37;26.27;;;14.10;;
6356;SDS011;3211;53.452;-2.264;2024-03-08T06:35:24;25.00;;;14.20;;
6356;SDS011;3211;53.452;-2.264;2024-03-08T06:38:11;31.23;;;15.30;;
6356;SDS011;3211;53.452;-2.264;2024-03-08T06:41:02;25.60;;;12.70;;
6356;SDS011;3211;53.452;-2.264;2024-03-08T06:43:49;23.57;;;13.10;;
6356;SDS011;3211;53.452;-2.264;2024-03-08T06:46:42;22.90;;;13.10;;
6356;SDS011;3211;53.452;-2.264;2024-03-08T06:49:31;24.13;;;13.27;;
6356;SDS011;3211;53.452;-2.264;2024-03-08T06:52:18;24.60;;;14.80;;
6356;SDS011;3211;53.452;-2.264;2024-03-08T06:55:05;26.83;;;15.60;;
6356;SDS011;3211;53.452;-2.264;2024-03-08T06:57:54;27.00;;;13.87;;
6356;SDS011;3211;53.452;-2.264;2024-03-08T07:00:41;23.47;;;14.37;;
6356;SDS011;3211;53.452;-2.264;2024-03-08T07:03:29;23.03;;;13.40;;
6356;SDS011;3211;53.452;-2.264;2024-03-08T07:06:19;24.60;;;14.07;;
6356;SDS011;3211;53.452;-2.264;2024-03-08T07:09:06;25.67;;;14.50;;
6356;SDS011;3211;53.452;-2.264;2024-03-08T07:11:53;26.90;;;15.47;;
6356;SDS011;3211;53.452;-2.264;2024-03-08T07:14:41;27.80;;;14.73;;
6356;SDS011;3211;53.452;-2.264;2024-03-08T07:17:30;22.40;;;14.03;;
6356;SDS011;3211;53.452;-2.264;2024-03-08T07:20:19;25.17;;;15.77;;
6356;SDS011;3211;53.452;-2.264;2024-03-08T07:23:08;22.40;;;13.07;;
6356;SDS011;3211;53.452;-2.264;2024-03-08T07:25:56;24.17;;;13.90;;
6356;SDS011;3211;53.452;-2.264;2024-03-08T07:28:43;23.97;;;14.07;;
6356;SDS011;3211;53.452;-2.264;2024-03-08T07:31:31;24.40;;;14.23;;
6356;SDS011;3211;53.452;-2.264;2024-03-08T07:34:30;25.10;;;13.50;;
6356;SDS011;3211;53.452;-2.264;2024-03-08T07:37:19;23.20;;;14.80;;
6356;SDS011;3211;53.452;-2.264;2024-03-08T07:40:08;29.17;;;15.93;;
6356;SDS011;3211;53.452;-2.264;2024-03-08T07:42:59;25.07;;;15.13;;
6356;SDS011;3211;53.452;-2.264;2024-03-08T07:45:47;27.70;;;15.60;;
6356;SDS011;3211;53.452;-2.264;2024-03-08T07:48:36;28.60;;;15.67;;
6356;SDS011;3211;53.452;-2.264;2024-03-08T07:51:25;26.97;;;16.20;;
6356;SDS011;3211;53.452;-2.264;2024-03-08T07:54:12;24.07;;;14.20;;
6356;SDS011;3211;53.452;-2.264;2024-03-08T07:57:01;31.37;;;16.43;;
6356;SDS011;3211;53.452;-2.264;2024-03-08T07:59:49;29.90;;;15.43;;
6356;SDS011;3211;53.452;-2.264;2024-03-08T08:02:37;25.27;;;14.77;;
6356;SDS011;3211;53.452;-2.264;2024-03-08T08:05:24;24.23;;;14.00;;
6356;SDS011;3211;53.452;-2.264;2024-03-08T08:08:12;26.60;;;14.83;;
6356;SDS011;3211;53.452;-2.264;2024-03-08T08:10:59;28.03;;;15.50;;
6356;SDS011;3211;53.452;-2.264;2024-03-08T08:13:49;24.37;;;15.57;;
6356;SDS011;3211;53.452;-2.264;2024-03-08T08:16:36;26.70;;;15.27;;
6356;SDS011;3211;53.452;-2.264;2024-03-08T08:19:26;25.20;;;15.07;;
6356;SDS011;3211;53.452;-2.264;2024-03-08T08:22:14;27.10;;;15.67;;
6356;SDS011;3211;53.452;-2.264;2024-03-08T08:25:01;21.77;;;14.07;;
6356;SDS011;3211;53.452;-2.264;2024-03-08T08:27:48;28.13;;;14.97;;
6356;SDS011;3211;53.452;-2.264;2024-03-08T08:30:37;27.13;;;15.20;;
6356;SDS011;3211;53.452;-2.264;2024-03-08T08:33:24;24.57;;;14.73;;
6356;SDS011;3211;53.452;-2.264;2024-03-08T08:36:12;32.50;;;15.13;;
6356;SDS011;3211;53.452;-2.264;2024-03-08T08:38:59;25.67;;;16.27;;
6356;SDS011;3211;53.452;-2.264;2024-03-08T08:41:48;24.47;;;14.73;;
6356;SDS011;3211;53.452;-2.264;2024-03-08T08:44:36;28.67;;;15.43;;
6356;SDS011;3211;53.452;-2.264;2024-03-08T08:47:24;29.73;;;15.97;;
6356;SDS011;3211;53.452;-2.264;2024-03-08T08:50:12;34.47;;;16.50;;
6356;SDS011;3211;53.452;-2.264;2024-03-08T08:52:59;28.50;;;14.87;;
6356;SDS011;3211;53.452;-2.264;2024-03-08T08:55:46;31.30;;;14.50;;
6356;SDS011;3211;53.452;-2.264;2024-03-08T08:58:33;27.13;;;14.90;;
6356;SDS011;3211;53.452;-2.264;2024-03-08T09:01:21;31.40;;;14.40;;
6356;SDS011;3211;53.452;-2.264;2024-03-08T09:04:09;25.87;;;14.90;;
6356;SDS011;3211;53.452;-2.264;2024-03-08T09:06:59;25.60;;;14.10;;
6356;SDS011;3211;53.452;-2.264;2024-03-08T09:09:47;25.70;;;11.97;;
6356;SDS011;3211;53.452;-2.264;2024-03-08T09:12:34;21.53;;;14.57;;
6356;SDS011;3211;53.452;-2.264;2024-03-08T09:15:21;24.70;;;13.53;;
6356;SDS011;3211;53.452;-2.264;2024-03-08T09:18:08;24.53;;;13.40;;
6356;SDS011;3211;53.452;-2.264;2024-03-08T09:20:57;25.00;;;13.40;;
6356;SDS011;3211;53.452;-2.264;2024-03-08T09:23:45;25.33;;;14.97;;
6356;SDS011;3211;53.452;-2.264;2024-03-08T09:26:32;24.07;;;13.13;;
6356;SDS011;3211;53.452;-2.264;2024-03-08T09:29:19;21.93;;;12.17;;
6356;SDS011;3211;53.452;-2.264;2024-03-08T09:32:07;19.67;;;12.90;;
6356;SDS011;3211;53.452;-2.264;2024-03-08T09:34:54;29.53;;;14.33;;
6356;SDS011;3211;53.452;-2.264;2024-03-08T09:37:43;23.70;;;13.20;;
6356;SDS011;3211;53.452;-2.264;2024-03-08T09:40:32;24.43;;;13.60;;
6356;SDS011;3211;53.452;-2.264;2024-03-08T09:43:19;20.90;;;12.97;;
6356;SDS011;3211;53.452;-2.264;2024-03-08T09:46:07;24.83;;;12.90;;
6356;SDS011;3211;53.452;-2.264;2024-03-08T09:48:56;21.70;;;13.43;;
6356;SDS011;3211;53.452;-2.264;2024-03-08T09:51:43;19.23;;;13.00;;
6356;SDS011;3211;53.452;-2.264;2024-03-08T09:54:32;21.00;;;12.17;;
6356;SDS011;3211;53.452;-2.264;2024-03-08T09:57:20;22.00;;;11.43;;
6356;SDS011;3211;53.452;-2.264;2024-03-08T10:00:08;19.57;;;12.33;;
6356;SDS011;3211;53.452;-2.264;2024-03-08T10:03:04;19.13;;;11.43;;
6356;SDS011;3211;53.452;-2.264;2024-03-08T10:05:51;22.30;;;13.17;;
6356;SDS011;3211;53.452;-2.264;2024-03-08T10:08:39;25.90;;;12.30;;
6356;SDS011;3211;53.452;-2.264;2024-03-08T10:11:28;23.93;;;11.50;;
6356;SDS011;3211;53.452;-2.264;2024-03-08T10:14:16;23.40;;;12.03;;
6356;SDS011;3211;53.452;-2.264;2024-03-08T10:17:04;21.47;;;12.07;;
6356;SDS011;3211;53.452;-2.264;2024-03-08T10:19:51;22.20;;;12.93;;
6356;SDS011;3211;53.452;-2.264;2024-03-08T10:22:38;23.33;;;12.30;;
6356;SDS011;3211;53.452;-2.264;2024-03-08T10:25:28;18.67;;;11.67;;
6356;SDS011;3211;53.452;-2.264;2024-03-08T10:28:17;17.30;;;10.90;;
6356;SDS011;3211;53.452;-2.264;2024-03-08T10:31:05;21.87;;;11.90;;
6356;SDS011;3211;53.452;-2.264;2024-03-08T10:33:52;17.70;;;12.07;;
6356;SDS011;3211;53.452;-2.264;2024-03-08T10:36:39;19.07;;;11.20;;
6356;SDS011;3211;53.452;-2.264;2024-03-08T10:39:28;24.10;;;12.10;;
6356;SDS011;3211;53.452;-2.264;2024-03-08T10:42:21;19.83;;;12.20;;
6356;SDS011;3211;53.452;-2.264;2024-03-08T10:45:17;21.90;;;13.30;;
6356;SDS011;3211;53.452;-2.264;2024-03-08T10:48:17;26.13;;;12.83;;
6356;SDS011;3211;53.452;-2.264;2024-03-08T10:51:13;22.03;;;12.17;;
6356;SDS011;3211;53.452;-2.264;2024-03-08T10:54:02;19.57;;;11.77;;
6356;SDS011;3211;53.452;-2.264;2024-03-08T10:56:50;20.07;;;12.20;;
6356;SDS011;3211;53.452;-2.264;2024-03-08T10:59:38;22.07;;;11.90;;
6356;SDS011;3211;53.452;-2.264;2024-03-08T11:02:28;18.90;;;11.00;;
6356;SDS011;3211;53.452;-2.264;2024-03-08T11:05:30;24.53;;;13.30;;
6356;SDS011;3211;53.452;-2.264;2024-03-08T11:08:20;19.40;;;12.10;;
6356;SDS011;3211;53.452;-2.264;2024-03-08T11:11:23;18.80;;;11.67;;
6356;SDS011;3211;53.452;-2.264;2024-03-08T11:14:42;24.50;;;12.90;;
6356;SDS011;3211;53.452;-2.264;2024-03-08T11:17:45;28.87;;;11.70;;
6356;SDS011;3211;53.452;-2.264;2024-03-08T11:20:33;26.03;;;13.17;;
6356;SDS011;3211;53.452;-2.264;2024-03-08T11:23:22;21.60;;;12.87;;
6356;SDS011;3211;53.452;-2.264;2024-03-08T11:26:18;24.60;;;12.20;;
6356;SDS011;3211;53.452;-2.264;2024-03-08T11:32:28;24.47;;;11.73;;
6356;SDS011;3211;53.452;-2.264;2024-03-08T11:35:19;20.43;;;11.43;;
6356;SDS011;3211;53.452;-2.264;2024-03-08T11:38:08;17.67;;;10.67;;
6356;SDS011;3211;53.452;-2.264;2024-03-08T11:40:56;16.83;;;10.63;;
6356;SDS011;3211;53.452;-2.264;2024-03-08T11:43:43;18.20;;;11.57;;
6356;SDS011;3211;53.452;-2.264;2024-03-08T11:46:31;22.93;;;11.33;;
6356;SDS011;3211;53.452;-2.264;2024-03-08T11:49:19;32.73;;;12.30;;
6356;SDS011;3211;53.452;-2.264;2024-03-08T11:52:09;20.00;;;10.57;;
6356;SDS011;3211;53.452;-2.264;2024-03-08T11:54:58;21.03;;;12.50;;
6356;SDS011;3211;53.452;-2.264;2024-03-08T11:57:46;17.80;;;10.17;;
6356;SDS011;3211;53.452;-2.264;2024-03-08T12:00:33;19.27;;;11.30;;
6356;SDS011;3211;53.452;-2.264;2024-03-08T12:03:24;17.80;;;10.80;;
6356;SDS011;3211;53.452;-2.264;2024-03-08T12:06:11;23.20;;;10.33;;
6356;SDS011;3211;53.452;-2.264;2024-03-08T12:09:00;16.43;;;11.33;;
6356;SDS011;3211;53.452;-2.264;2024-03-08T12:11:48;21.50;;;11.10;;
6356;SDS011;3211;53.452;-2.264;2024-03-08T12:14:36;14.80;;;10.00;;
6356;SDS011;3211;53.452;-2.264;2024-03-08T12:17:23;19.37;;;10.10;;
6356;SDS011;3211;53.452;-2.264;2024-03-08T12:20:11;25.63;;;12.60;;
6356;SDS011;3211;53.452;-2.264;2024-03-08T12:22:59;16.70;;;10.03;;
6356;SDS011;3211;53.452;-2.264;2024-03-08T12:25:48;21.60;;;10.73;;
6356;SDS011;3211;53.452;-2.264;2024-03-08T12:28:35;18.17;;;11.13;;
6356;SDS011;3211;53.452;-2.264;2024-03-08T12:31:22;24.37;;;12.13;;
6356;SDS011;3211;53.452;-2.264;2024-03-08T12:34:11;19.63;;;11.17;;
6356;SDS011;3211;53.452;-2.264;2024-03-08T12:36:58;18.10;;;11.60;;
6356;SDS011;3211;53.452;-2.264;2024-03-08T12:39:47;21.73;;;12.17;;
6356;SDS011;3211;53.452;-2.264;2024-03-08T12:42:35;20.47;;;11.87;;
6356;SDS011;3211;53.452;-2.264;2024-03-08T12:45:24;20.80;;;12.37;;
6356;SDS011;3211;53.452;-2.264;2024-03-08T12:48:12;21.73;;;12.83;;
6356;SDS011;3211;53.452;-2.264;2024-03-08T12:51:00;19.90;;;11.03;;
6356;SDS011;3211;53.452;-2.264;2024-03-08T12:53:48;22.53;;;12.77;;
6356;SDS011;3211;53.452;-2.264;2024-03-08T12:56:41;22.10;;;11.40;;
6356;SDS011;3211;53.452;-2.264;2024-03-08T12:59:29;23.17;;;12.77;;
6356;SDS011;3211;53.452;-2.264;2024-03-08T13:02:16;23.50;;;12.00;;
6356;SDS011;3211;53.452;-2.264;2024-03-08T13:05:04;18.90;;;12.03;;
6356;SDS011;3211;53.452;-2.264;2024-03-08T13:07:52;19.10;;;13.20;;
6356;SDS011;3211;53.452;-2.264;2024-03-08T13:10:40;20.27;;;12.20;;
6356;SDS011;3211;53.452;-2.264;2024-03-08T13:13:28;18.17;;;12.57;;
6356;SDS011;3211;53.452;-2.264;2024-03-08T13:16:17;18.53;;;11.87;;
6356;SDS011;3211;53.452;-2.264;2024-03-08T13:19:05;20.70;;;12.70;;
6356;SDS011;3211;53.452;-2.264;2024-03-08T13:21:52;16.90;;;10.93;;
6356;SDS011;3211;53.452;-2.264;2024-03-08T13:24:39;17.50;;;10.90;;
6356;SDS011;3211;53.452;-2.264;2024-03-08T13:27:27;17.73;;;11.00;;
6356;SDS011;3211;53.452;-2.264;2024-03-08T13:30:14;18.83;;;11.50;;
6356;SDS011;3211;53.452;-2.264;2024-03-08T13:33:05;18.00;;;11.00;;
6356;SDS011;3211;53.452;-2.264;2024-03-08T13:35:52;18.13;;;11.10;;
6356;SDS011;3211;53.452;-2.264;2024-03-08T13:38:40;19.60;;;10.87;;
6356;SDS011;3211;53.452;-2.264;2024-03-08T13:41:29;17.87;;;11.70;;
6356;SDS011;3211;53.452;-2.264;2024-03-08T13:44:16;20.90;;;11.17;;
6356;SDS011;3211;53.452;-2.264;2024-03-08T13:47:04;21.60;;;12.50;;
6356;SDS011;3211;53.452;-2.264;2024-03-08T13:49:54;19.43;;;11.33;;
6356;SDS011;3211;53.452;-2.264;2024-03-08T13:52:41;19.60;;;12.13;;
6356;SDS011;3211;53.452;-2.264;2024-03-08T13:55:29;21.60;;;13.10;;
6356;SDS011;3211;53.452;-2.264;2024-03-08T13:58:16;20.60;;;10.80;;
6356;SDS011;3211;53.452;-2.264;2024-03-08T14:01:05;19.97;;;12.33;;
6356;SDS011;3211;53.452;-2.264;2024-03-08T14:03:57;20.77;;;12.97;;
6356;SDS011;3211;53.452;-2.264;2024-03-08T14:06:46;20.33;;;12.80;;
6356;SDS011;3211;53.452;-2.264;2024-03-08T14:09:35;19.70;;;11.43;;
6356;SDS011;3211;53.452;-2.264;2024-03-08T14:12:28;16.03;;;11.10;;
6356;SDS011;3211;53.452;-2.264;2024-03-08T14:15:15;19.53;;;11.57;;
6356;SDS011;3211;53.452;-2.264;2024-03-08T14:18:02;17.60;;;11.50;;
6356;SDS011;3211;53.452;-2.264;2024-03-08T14:20:52;18.13;;;12.00;;
6356;SDS011;3211;53.452;-2.264;2024-03-08T14:23:42;18.07;;;11.40;;
6356;SDS011;3211;53.452;-2.264;2024-03-08T14:26:29;26.33;;;11.47;;
6356;SDS011;3211;53.452;-2.264;2024-03-08T14:29:16;19.50;;;11.87;;
6356;SDS011;3211;53.452;-2.264;2024-03-08T14:32:04;19.70;;;12.07;;
6356;SDS011;3211;53.452;-2.264;2024-03-08T14:34:52;17.57;;;12.97;;
6356;SDS011;3211;53.452;-2.264;2024-03-08T14:37:40;22.53;;;12.83;;
6356;SDS011;3211;53.452;-2.264;2024-03-08T14:40:30;19.63;;;13.00;;
6356;SDS011;3211;53.452;-2.264;2024-03-08T14:43:17;18.90;;;12.60;;
6356;SDS011;3211;53.452;-2.264;2024-03-08T14:46:07;20.47;;;12.60;;
6356;SDS011;3211;53.452;-2.264;2024-03-08T14:48:54;18.87;;;11.70;;
6356;SDS011;3211;53.452;-2.264;2024-03-08T14:51:42;24.10;;;13.30;;
6356;SDS011;3211;53.452;-2.264;2024-03-08T14:54:30;21.43;;;12.50;;
6356;SDS011;3211;53.452;-2.264;2024-03-08T14:57:18;21.20;;;13.07;;
6356;SDS011;3211;53.452;-2.264;2024-03-08T15:00:06;19.03;;;11.83;;
6356;SDS011;3211;53.452;-2.264;2024-03-08T15:03:01;17.43;;;13.10;;
6356;SDS011;3211;53.452;-2.264;2024-03-08T15:05:50;21.37;;;11.73;;
6356;SDS011;3211;53.452;-2.264;2024-03-08T15:08:37;22.47;;;13.00;;
6356;SDS011;3211;53.452;-2.264;2024-03-08T15:11:25;16.63;;;11.43;;
6356;SDS011;3211;53.452;-2.264;2024-03-08T15:14:14;21.47;;;12.00;;
6356;SDS011;3211;53.452;-2.264;2024-03-08T15:17:02;21.03;;;13.67;;
6356;SDS011;3211;53.452;-2.264;2024-03-08T15:19:56;20.60;;;13.23;;
6356;SDS011;3211;53.452;-2.264;2024-03-08T15:22:43;20.87;;;12.37;;
6356;SDS011;3211;53.452;-2.264;2024-03-08T15:25:34;17.10;;;11.80;;
6356;SDS011;3211;53.452;-2.264;2024-03-08T15:28:22;23.93;;;11.70;;
6356;SDS011;3211;53.452;-2.264;2024-03-08T15:31:17;20.67;;;12.60;;
6356;SDS011;3211;53.452;-2.264;2024-03-08T15:34:07;19.23;;;12.37;;
6356;SDS011;3211;53.452;-2.264;2024-03-08T15:36:56;20.13;;;13.17;;
6356;SDS011;3211;53.452;-2.264;2024-03-08T15:39:47;19.50;;;12.10;;
6356;SDS011;3211;53.452;-2.264;2024-03-08T15:42:34;17.90;;;12.73;;
6356;SDS011;3211;53.452;-2.264;2024-03-08T15:45:21;20.10;;;11.77;;
6356;SDS011;3211;53.452;-2.264;2024-03-08T15:48:11;17.77;;;12.60;;
6356;SDS011;3211;53.452;-2.264;2024-03-08T15:50:58;22.90;;;13.53;;
6356;SDS011;3211;53.452;-2.264;2024-03-08T15:53:47;19.03;;;12.30;;
6356;SDS011;3211;53.452;-2.264;2024-03-08T15:56:38;20.33;;;12.30;;
6356;SDS011;3211;53.452;-2.264;2024-03-08T15:59:25;20.53;;;12.07;;
6356;SDS011;3211;53.452;-2.264;2024-03-08T16:02:14;17.60;;;12.47;;
6356;SDS011;3211;53.452;-2.264;2024-03-08T16:05:05;22.27;;;13.63;;
6356;SDS011;3211;53.452;-2.264;2024-03-08T16:07:54;19.20;;;13.27;;
6356;SDS011;3211;53.452;-2.264;2024-03-08T16:10:41;22.50;;;13.43;;
6356;SDS011;3211;53.452;-2.264;2024-03-08T16:13:32;24.83;;;14.20;;
6356;SDS011;3211;53.452;-2.264;2024-03-08T16:16:23;20.20;;;13.67;;
6356;SDS011;3211;53.452;-2.264;2024-03-08T16:19:11;21.57;;;11.87;;
6356;SDS011;3211;53.452;-2.264;2024-03-08T16:22:00;21.23;;;12.13;;
6356;SDS011;3211;53.452;-2.264;2024-03-08T16:24:50;19.57;;;13.00;;
6356;SDS011;3211;53.452;-2.264;2024-03-08T16:27:38;17.70;;;12.60;;
6356;SDS011;3211;53.452;-2.264;2024-03-08T16:30:26;19.90;;;12.43;;
6356;SDS011;3211;53.452;-2.264;2024-03-08T16:33:17;20.57;;;12.47;;
6356;SDS011;3211;53.452;-2.264;2024-03-08T16:36:04;25.37;;;13.40;;
6356;SDS011;3211;53.452;-2.264;2024-03-08T16:38:54;19.70;;;12.13;;
6356;SDS011;3211;53.452;-2.264;2024-03-08T16:41:43;21.93;;;12.40;;
6356;SDS011;3211;53.452;-2.264;2024-03-08T16:44:31;19.27;;;10.90;;